Descanso, CA

12:29 PM PST on December 28, 2014 (GMT -0800)
MesoWest Lucky Five Ranch CA US SDGE | Change Station
CLOSE
Current Station
Personal Weather Station
Location: Guatay, CA
Elevation: 4740 ft
Nearby Weather Stations

Elev 4740 ft 32.93 °N, 116.53 °W | Updated 29 minutes ago

Partly Cloudy
Partly Cloudy
46.0 °F
Feels Like 44 °F
N
5.0
Wind Variable Wind from SSW
Gusts 7.0 mph

Today
High -- | Low -- °F
--% Chance of Precip.
Yesterday
High -- | Low -- °F
Precip. -- in
6:47 AM 4:47 PM
Waxing Crescent, 51% visible
Pressure 30.15 in
Visibility -9999.0 miles
Clouds
Windchill 44 °F
Dew Point 6.0 °F
Humidity 19%
Rainfall -999.00 in
Snow Depth Not available.
UV Not available.
Pollen 5.50 out of 12
Air Quality Not available.
Flu Activity Not available.
METAR KCZZ 281952Z AUTO 20005KT 11/M12 A3016 RMK AO1 SLP208 T01061117

More Conditions Fewer Conditions

Pressure 30.15 in
Visibility -9999.0 miles
Clouds
Windchill 44 °F
Dew Point 6.0 °F
Humidity 19%
Rainfall -999.00 in
Snow Depth Not available.
UV Not available.
Pollen 5.50 out of 12
Air Quality Not available.
Flu Activity Not available.
METAR KCZZ 281952Z AUTO 20005KT 11/M12 A3016 RMK AO1 SLP208 T01061117

More Conditions Fewer Conditions

10-Day Weather Forecast

Almanac

Astronomy

Dec. 28, 2014 Rise Set
Actual Time
Civil Twilight
Nautical Twilight
Astronomical Twilight
Moon
Length of Visible Light
Length of Day
Tomorrow will be .
, % of the Moon is Illuminated

Today's Extremes

State Highs State Lows

Community

WunderPhotos

Upload Photos

1,781,411 photos uploaded!

WunderBlogs® & News

Nearby

Air Quality

  Air Quality AQ Index Pollutant
Not available.

Snow Depth

Station Depth Elevation

Earthquake Activity

City Distance Mag. Time & Date
Minimum magnitude displayed is 2.5.

Coastal Water Temperatures

Place Temperature

Nearby Weather Stations